This is the latest recevied weather packets stored in our database for station/object N9BID. If no packets are shown the sender has not sent any weather packets the latest 10 day(s).
| Time | Temp. | Humidity | Pressure | Rain* | Wind** | Luminosity | Snow |
|---|---|---|---|---|---|---|---|
| 1777744032 | 12.78° C | 47% | 1008.1 hPa | 0 mm | - | 638 W/m² | - |
| 1777743729 | 12.22° C | 45% | 1008.1 hPa | 0 mm | - | 631 W/m² | - |
| 1777743426 | 12.78° C | 44% | 1008.5 hPa | 0 mm | - | 675 W/m² | - |
| 1777743123 | 12.22° C | 41% | 1008.5 hPa | 0 mm | - | 603 W/m² | - |
| 1777742821 | 12.22° C | 46% | 1008.5 hPa | 0 mm | - | 745 W/m² | - |
| 1777742517 | 12.22° C | 50% | 1008.3 hPa | 0 mm | - | 754 W/m² | - |
| 1777742212 | 12.78° C | 41% | 1008.5 hPa | 0 mm | - | 679 W/m² | - |
| 1777741910 | 11.67° C | 41% | 1008.8 hPa | 0 mm | - | 694 W/m² | - |
| 1777741607 | 11.67° C | 45% | 1008.7 hPa | 0 mm | - | 687 W/m² | - |
| 1777741304 | 11.67° C | 46% | 1008.8 hPa | 0 mm | - | 681 W/m² | - |
| 1777741000 | 11.11° C | 45% | 1008.9 hPa | 0 mm | - | 701 W/m² | - |
| 1777740698 | 11.67° C | 48% | 1009 hPa | 0 mm | - | 765 W/m² | - |
| 1777740393 | 11.67° C | 43% | 1008.9 hPa | 0 mm | - | 684 W/m² | - |
| 1777740091 | 11.67° C | 44% | 1008.7 hPa | 0 mm | - | 675 W/m² | - |
| 1777739786 | 12.22° C | 46% | 1008.8 hPa | 0 mm | - | 659 W/m² | - |
| 1777739483 | 11.67° C | 45% | 1008.8 hPa | 0 mm | - | 674 W/m² | - |
| 1777739180 | 11.67° C | 45% | 1009 hPa | 0 mm | - | 668 W/m² | - |
| 1777738877 | 11.67° C | 44% | 1009 hPa | 0 mm | - | 681 W/m² | - |
| 1777738574 | 11.11° C | 50% | 1009.1 hPa | 0 mm | - | 688 W/m² | - |
| 1777738271 | 11.11° C | 46% | 1009.1 hPa | 0 mm | - | 690 W/m² | - |
| 1777737969 | 11.11° C | 48% | 1009.2 hPa | 0 mm | - | 681 W/m² | - |
| 1777737668 | 10.56° C | 51% | 1009.3 hPa | 0 mm | - | 677 W/m² | - |
| 1777737366 | 10.56° C | 50% | 1009.2 hPa | 0 mm | - | 683 W/m² | - |
| 1777737062 | 10.56° C | 49% | 1009.5 hPa | 0 mm | - | 642 W/m² | - |
| 1777736759 | 10° C | 54% | 1009.4 hPa | 0 mm | - | 606 W/m² | - |
* Rain latest hour (hover to see other rain measurements)
** Current wind speed in m/s (hover to see current wind gust speed)